Aeroporto :
LOGIN :

Iscrizione | Disclaimer

   EN    FR    IT 

 










Sommario :    VFR   VFR Marginale   IFR   IFR Intensivo   IFR Molto Intensivo
Visibilità : 
Base nubi : 
>= 8 km
>= 3000ft
5 / 8 km
1000 / 3000 ft
1500m / 5 km
500 / 1000 ft
800 / 1500m
200 / 500 ft
< 800m
< 200 ft
Simboli :   Temporali  Nebbia  Neve Forte  Precipitazioni Forti  Vento > 20 kt
SIGMETs :   Varie  Temporali  Ghiacco  Turbolenza  Onda orograficha  Ceneri Vulcaniche






- Altitudine del aeroporto : 74 ft
- Codice IATA : MRS


LFML - Marseille / Marignane

ULTIMO METAR :
  • 141830Z AUTO 26008KT 9000 -RADZ BKN006/// OVC013/// ///TCU 09/08 Q0995 BECMG BKN013

METARs OBSOLETI :
  • 141800Z AUTO 26009KT 4900 -RADZ BR BKN005/// BKN019/// OVC024/// ///TCU 09/08 Q0995 TEMPO VRB15G25KT BECMG 5000 NSW BKN013
  • 141730Z AUTO 26017KT 6000 -RA BKN006/// BKN014/// BKN020/// ///CB 09/08 Q0994 TEMPO 4000 RA BR BECMG VRB03KT BKN013
  • 141700Z AUTO 10006KT 6000 -RA FEW013/// BKN023/// BKN032/// ///TCU 11/10 Q0994 TEMPO VRB15G25KT 4000 RA BR
  • 141630Z AUTO 09007KT 9999 BKN029/// BKN034/// BKN068/// ///TCU 11/09 Q0994 TEMPO VRB15G25KT 4000 RA BR
  • 141600Z AUTO 10010KT 9999 -RA BKN038 OVC072 11/09 Q0995 TEMPO VRB15G25KT 4000 RA BR BKN020TCU

TAF AMD TAF LFML
Valido dal 14 a 18 ore il 15 a 21 ore UTC


141825Z 1418/1521 26007KT 4000 RA BR BKN005 BKN013TCU TX12/1512Z TN03/1503Z
BECMG 1419/1421 VRB03KT 5000 NSW BKN013
BECMG 1503/1505 08008KT CAVOK
TEMPO 1507/1509 SCT035
BECMG 1509/1511 VRB03KT CAVOK
PROB40
TEMPO 1517/1521 4000 SHRA SCT035CB BKN050
ATIS : +33 4 42 31 15 15



MetMap, La meteo Aeronautica in un colpo d'occhio ! - Copyright ORBIFLY Dicembre 2007 - Disclaimer

ORBIFLY MET'MAP TEAM :

Programmazione e sviluppo : Alexandra Zaïnal
Concezione e sviluppo : Baudouin d'Aumeries
Co-Programmazione e sviluppo : Marc-Olivier Méhu
Supporto tecnico e logistico : Manuel Goepfert
Aiuto per la traduzione : Arnaldo La Scala

Contatto : metmap@orbifly.com




FONTI E CREDITI :

   NOAA